Time;durP1;ratioP1;P1;durP2;ratioP2;P2;SDS_P1;SDS_P2;PMS_P1;PMS_P2;Temp;Humidity;BMP_temperature;BMP_pressure;BME280_temperature;BME280_humidity;BME280_pressure;Samples;Min_cycle;Max_cycle;Signal;HPM_P1;HPM_P2
2023/01/22 00:01:15;;;;;;;20.27;15.25;;;17.60;69.30;;;18.66;38.53;99271.88;5066093;27;20311;-82
2023/01/22 00:03:42;;;;;;;26.60;15.65;;;17.60;70.00;;;18.66;38.11;99269.94;5080706;27;20176;-82
2023/01/22 00:06:09;;;;;;;21.88;14.13;;;17.70;69.00;;;18.64;38.25;99271.38;5097934;27;20058;-82
2023/01/22 00:08:35;;;;;;;25.98;14.68;;;17.60;69.00;;;18.64;38.17;99269.44;5078576;27;20045;-82
2023/01/22 00:11:01;;;;;;;20.52;13.48;;;17.60;69.10;;;18.64;38.04;99274.13;5098785;27;20043;-82
2023/01/22 00:13:27;;;;;;;22.80;15.43;;;17.70;69.00;;;18.65;38.13;99275.78;5099635;27;20050;-82
2023/01/22 00:15:55;;;;;;;22.35;15.65;;;17.70;69.00;;;18.63;38.14;99273.34;5057836;27;20100;-82
2023/01/22 00:18:21;;;;;;;26.30;14.57;;;17.70;68.80;;;18.65;38.18;99275.78;5076268;27;20418;-81
2023/01/22 00:20:49;;;;;;;23.90;14.63;;;17.60;69.00;;;18.63;38.22;99275.28;5065887;27;20118;-82
2023/01/22 00:23:15;;;;;;;22.80;15.38;;;17.60;68.90;;;18.65;38.16;99275.78;5082356;27;20036;-81
2023/01/22 00:25:42;;;;;;;21.90;14.05;;;17.60;68.90;;;18.64;38.19;99277.69;5080681;27;20466;-82
2023/01/22 00:28:08;;;;;;;22.13;15.15;;;17.60;68.90;;;18.60;38.22;99282.22;5078151;27;20127;-81
2023/01/22 00:30:34;;;;;;;22.60;16.17;;;17.60;68.80;;;18.62;38.12;99287.38;5077646;27;20439;-81
2023/01/22 00:33:00;;;;;;;20.15;13.90;;;17.60;68.10;;;18.60;38.26;99284.16;5080844;27;20038;-82
2023/01/22 00:35:26;;;;;;;22.40;14.63;;;17.60;68.90;;;18.60;38.26;99282.22;5107973;27;20051;-81
2023/01/22 00:37:52;;;;;;;26.30;13.50;;;17.60;68.90;;;18.63;38.19;99294.50;5078475;27;20065;-82
2023/01/22 00:40:20;;;;;;;22.17;14.98;;;17.60;69.00;;;18.62;38.29;99287.38;5060858;27;20039;-82
2023/01/22 00:42:46;;;;;;;23.25;14.18;;;17.60;68.90;;;18.61;38.06;99285.75;5079402;27;20042;-82
2023/01/22 00:45:12;;;;;;;22.77;14.18;;;17.60;68.90;;;18.63;38.08;99283.53;5059713;27;20052;-82
2023/01/22 00:47:39;;;;;;;21.88;15.20;;;17.60;68.90;;;18.64;37.98;99287.88;5098051;27;20043;-82
2023/01/22 00:50:06;;;;;;;18.75;13.25;;;17.60;69.00;;;18.64;38.00;99293.38;5112497;27;20086;-81
2023/01/22 00:52:32;;;;;;;22.02;13.60;;;17.60;68.90;;;18.64;38.40;99293.38;5057787;27;20043;-82
2023/01/22 00:54:59;;;;;;;23.65;14.38;;;17.60;68.90;;;18.65;38.17;99287.56;5090989;27;20462;-81
2023/01/22 00:57:25;;;;;;;22.45;13.95;;;17.60;68.90;;;18.60;38.14;99304.19;5094736;27;20043;-81
2023/01/22 00:59:52;;;;;;;23.08;14.52;;;17.60;69.00;;;18.59;38.51;99299.00;5098780;27;20073;-81
2023/01/22 01:02:18;;;;;;;21.08;14.13;;;17.60;69.40;;;18.60;38.73;99286.91;5078241;27;20047;-81
2023/01/22 01:04:44;;;;;;;23.48;14.55;;;17.60;69.60;;;18.58;38.50;99278.97;5099448;28;20192;-82
2023/01/22 01:07:10;;;;;;;25.40;14.98;;;17.60;69.60;;;18.59;38.44;99282.50;5098057;27;20447;-82
2023/01/22 01:09:37;;;;;;;22.40;12.90;;;17.60;69.70;;;18.57;38.39;99284.75;5096045;27;20065;-82
2023/01/22 01:12:03;;;;;;;19.40;12.40;;;17.60;69.10;;;18.57;38.38;99269.13;5097253;27;20032;-82
2023/01/22 01:14:29;;;;;;;21.20;13.88;;;17.60;69.30;;;18.56;38.39;99278.47;5111354;27;20053;-82
2023/01/22 01:16:55;;;;;;;21.58;13.80;;;17.60;69.20;;;18.56;38.44;99292.19;5097972;27;20050;-82
2023/01/22 01:19:21;;;;;;;22.40;14.10;;;17.50;69.40;;;18.57;38.27;99287.50;5129782;27;20031;-82
2023/01/22 01:21:47;;;;;;;23.17;14.05;;;17.60;69.30;;;18.57;38.35;99290.25;5081126;27;20038;-82
2023/01/22 01:24:13;;;;;;;19.65;13.32;;;17.50;69.40;;;18.56;38.25;99289.44;5099092;27;20035;-82
2023/01/22 01:26:40;;;;;;;20.85;13.43;;;17.50;69.40;;;18.57;38.27;99287.50;5064373;27;20416;-82
2023/01/22 01:29:08;;;;;;;21.55;14.32;;;17.50;69.40;;;18.58;38.31;99291.91;5076572;27;20039;-82
2023/01/22 01:31:34;;;;;;;18.65;13.95;;;17.50;69.20;;;18.54;38.23;99290.88;5081874;27;20035;-82
2023/01/22 01:34:01;;;;;;;21.33;13.32;;;17.50;69.30;;;18.52;38.32;99291.22;5097519;27;20080;-82
2023/01/22 01:36:27;;;;;;;21.05;13.13;;;17.50;69.30;;;18.54;38.30;99307.38;5093649;27;20501;-82
2023/01/22 01:38:53;;;;;;;21.25;12.95;;;17.50;69.30;;;18.53;38.29;99305.75;5078786;27;20835;-82
2023/01/22 01:41:23;;;;;;;18.70;13.05;;;17.50;69.20;;;18.52;38.31;99298.63;5077333;27;20075;-82
2023/01/22 01:44:10;;;;;;;18.70;12.07;;;17.50;69.20;;;18.51;38.35;99305.25;5080096;27;20566;-82
2023/01/22 01:46:47;;;;;;;20.48;12.50;;;17.50;69.10;;;18.51;38.46;99303.31;5128047;27;20046;-82
2023/01/22 01:49:45;;;;;;;18.58;12.88;;;17.50;69.20;;;18.47;38.36;99313.34;5081224;27;20057;-82
2023/01/22 01:52:11;;;;;;;21.77;12.63;;;17.50;69.10;;;18.49;38.36;99310.25;5109299;27;20035;-81
2023/01/22 01:54:43;;;;;;;20.58;12.98;;;17.40;69.00;;;18.49;37.95;99316.56;5096290;27;20043;-82
2023/01/22 01:57:16;;;;;;;17.88;11.25;;;17.50;69.10;;;18.48;38.16;99316.88;5054636;27;20402;-82
2023/01/22 01:59:43;;;;;;;20.80;13.02;;;17.40;69.00;;;18.46;38.25;99319.13;5112843;27;20114;-82
2023/01/22 02:02:09;;;;;;;19.48;13.13;;;17.40;69.00;;;18.43;38.37;99315.88;5062389;27;20043;-81
2023/01/22 02:04:35;;;;;;;18.48;11.80;;;17.50;69.40;;;18.49;38.45;99324.78;5073247;28;20470;-82
2023/01/22 02:07:03;;;;;;;16.80;12.75;;;17.40;69.20;;;18.47;38.21;99318.81;5076353;27;20035;-82
2023/01/22 02:09:29;;;;;;;14.50;11.52;;;17.50;69.20;;;18.44;38.38;99324.91;5096946;27;20051;-82
2023/01/22 02:11:55;;;;;;;20.58;12.75;;;17.40;69.10;;;18.42;38.44;99325.25;5078650;27;20129;-82
2023/01/22 02:14:30;;;;;;;13.65;11.35;;;17.40;69.10;;;18.43;38.13;99318.63;5098826;27;20038;-82
2023/01/22 02:17:08;;;;;;;17.80;12.93;;;17.50;69.30;;;18.44;38.31;99308.44;5092118;27;20051;-81
2023/01/22 02:19:34;;;;;;;15.43;11.30;;;17.40;69.10;;;18.43;38.28;99315.06;5081303;27;20204;-82
2023/01/22 02:22:00;;;;;;;20.15;11.70;;;17.40;69.10;;;18.38;38.48;99316.00;5095579;27;20058;-81
2023/01/22 02:24:28;;;;;;;18.38;11.50;;;17.40;69.10;;;18.41;38.28;99320.06;5078088;27;20050;-82
2023/01/22 02:26:54;;;;;;;13.82;11.05;;;17.40;69.20;;;18.40;38.45;99319.25;5081586;27;20444;-82
2023/01/22 02:29:21;;;;;;;20.58;11.98;;;17.40;69.20;;;18.44;38.43;99316.69;5092630;28;20389;-81
2023/01/22 02:31:47;;;;;;;17.23;11.27;;;17.40;69.30;;;18.39;38.37;99314.91;5054379;28;20059;-82
2023/01/22 02:34:13;;;;;;;16.48;11.93;;;17.30;69.10;;;18.39;38.37;99314.06;5063445;28;20043;-81
2023/01/22 02:36:39;;;;;;;16.55;11.30;;;17.40;69.30;;;18.35;38.80;99305.66;5095352;28;20054;-82
2023/01/22 02:39:05;;;;;;;16.45;11.02;;;17.40;69.50;;;18.40;38.90;99308.28;5079964;28;20039;-82
2023/01/22 02:41:32;;;;;;;15.82;10.95;;;17.40;69.90;;;18.40;38.79;99304.72;5108290;28;20043;-82
2023/01/22 02:44:00;;;;;;;20.02;12.52;;;17.40;69.90;;;18.38;38.67;99315.19;5081299;28;20390;-82
2023/01/22 02:46:26;;;;;;;16.17;11.55;;;17.30;69.70;;;18.37;38.66;99311.66;5061558;28;20039;-82
2023/01/22 02:48:52;;;;;;;16.08;11.05;;;17.30;69.70;;;18.34;38.49;99308.69;5109644;28;20393;-82
2023/01/22 02:51:18;;;;;;;19.33;11.35;;;17.40;69.60;;;18.34;38.79;99309.53;5091513;28;20039;-81
2023/01/22 02:53:45;;;;;;;15.52;11.10;;;17.40;69.50;;;18.35;38.65;99313.88;5096799;28;20058;-81
2023/01/22 02:56:11;;;;;;;16.17;10.18;;;17.40;69.50;;;18.35;38.70;99308.41;5112796;28;20039;-82
2023/01/22 02:58:38;;;;;;;15.82;10.73;;;17.40;69.50;;;18.36;38.39;99314.69;5074160;28;20047;-82
2023/01/22 03:01:23;;;;;;;14.00;10.85;;;17.40;69.60;;;18.32;38.55;99313.69;5080920;28;20108;-82
2023/01/22 03:03:50;;;;;;;17.80;10.45;;;17.40;69.60;;;18.32;38.70;99311.78;5082321;28;20039;-82
2023/01/22 03:06:20;;;;;;;16.27;11.13;;;17.40;70.00;;;18.31;38.60;99321.13;5133033;28;20039;-82
2023/01/22 03:08:55;;;;;;;18.65;12.00;;;17.30;69.40;;;18.27;38.62;99319.31;5080831;28;20052;-82
2023/01/22 03:11:21;;;;;;;18.00;11.23;;;17.30;69.50;;;18.28;38.65;99316.25;5095806;28;20050;-81
2023/01/22 03:22:03;;;;;;;17.02;10.55;;;17.30;69.50;;;18.26;38.67;99329.47;5087137;27;20035;-82
2023/01/22 03:24:30;;;;;;;17.52;11.15;;;17.30;69.40;;;18.25;38.60;99327.88;5061948;27;20035;-82
2023/01/22 03:26:55;;;;;;;15.85;11.02;;;17.30;69.40;;;18.27;38.77;99338.53;5096632;27;20627;-82
2023/01/22 03:29:22;;;;;;;16.83;10.70;;;17.30;69.40;;;18.26;38.60;99337.72;5098267;27;20032;-82
2023/01/22 03:31:48;;;;;;;14.52;9.82;;;17.30;69.40;;;18.28;38.66;99342.91;5082001;27;20522;-82
2023/01/22 03:34:15;;;;;;;14.55;10.25;;;17.30;69.30;;;18.23;38.59;99346.59;5114167;27;20035;-82
2023/01/22 03:36:41;;;;;;;15.48;11.18;;;17.30;69.20;;;18.22;38.54;99343.03;5082191;27;20054;-82
2023/01/22 03:39:08;;;;;;;14.73;10.02;;;17.30;69.40;;;18.24;38.65;99342.69;5084870;27;20125;-82
2023/01/22 03:41:34;;;;;;;15.20;9.98;;;17.30;69.50;;;18.22;38.70;99342.22;5114017;27;20347;-82
2023/01/22 03:44:00;;;;;;;13.45;10.02;;;17.30;69.50;;;18.21;38.72;99343.34;5080146;27;20039;-82
2023/01/22 03:46:26;;;;;;;15.50;10.75;;;17.20;69.40;;;18.23;38.73;99341.09;5116894;27;20394;-82
2023/01/22 03:48:52;;;;;;;13.80;9.75;;;17.20;69.40;;;18.23;38.79;99341.09;5060278;27;20046;-82
2023/01/22 03:51:19;;;;;;;17.85;10.00;;;17.20;69.40;;;18.23;38.57;99332.84;5083397;27;20057;-81
2023/01/22 03:53:45;;;;;;;13.07;9.45;;;17.30;69.50;;;18.23;38.60;99336.41;5082033;27;20039;-81
2023/01/22 03:56:18;;;;;;;12.80;8.90;;;17.30;69.40;;;18.20;38.95;99347.22;5066513;27;20043;-82
2023/01/22 03:58:44;;;;;;;14.00;9.80;;;17.30;69.40;;;18.21;38.83;99335.91;5101827;27;20042;-82
2023/01/22 04:01:13;;;;;;;14.82;10.32;;;17.20;69.40;;;18.20;38.57;99341.72;5065805;27;20398;-82
2023/01/22 04:03:39;;;;;;;10.40;8.38;;;17.20;69.50;;;18.17;38.54;99336.84;5066482;27;20050;-82
2023/01/22 04:06:06;;;;;;;15.52;10.05;;;17.20;69.20;;;18.19;38.71;99337.34;5094014;27;20074;-82
2023/01/22 04:08:33;;;;;;;13.18;9.27;;;17.30;69.30;;;18.20;38.70;99338.97;5062984;27;20043;-82
2023/01/22 04:10:59;;;;;;;13.95;9.05;;;17.20;69.30;;;18.19;38.79;99346.41;5066124;27;20054;-82
2023/01/22 04:13:26;;;;;;;12.70;9.18;;;17.20;69.20;;;18.17;38.57;99336.84;5068628;27;20039;-82
2023/01/22 04:15:53;;;;;;;11.93;9.27;;;17.20;69.20;;;18.18;38.76;99343.97;5078769;27;20039;-82
2023/01/22 04:18:19;;;;;;;13.38;7.80;;;17.30;69.20;;;18.15;38.82;99344.59;5095018;27;20478;-81
2023/01/22 04:20:47;;;;;;;14.38;8.93;;;17.30;69.40;;;18.16;38.84;99341.50;5100208;27;20047;-82
2023/01/22 04:23:15;;;;;;;16.48;9.23;;;17.30;69.30;;;18.19;38.49;99342.81;5114017;27;20031;-82
2023/01/22 04:25:41;;;;;;;11.95;8.48;;;17.30;69.30;;;18.16;38.68;99343.44;5100795;27;20478;-81
2023/01/22 04:28:09;;;;;;;12.75;8.85;;;17.20;69.10;;;18.14;38.76;99349.28;5077176;28;20035;-82
2023/01/22 04:30:36;;;;;;;12.63;9.00;;;17.20;69.20;;;18.16;38.58;99338.75;5080863;27;20051;-82
2023/01/22 04:33:03;;;;;;;12.70;8.50;;;17.20;69.20;;;18.16;38.45;99344.25;5078809;27;20551;-82
2023/01/22 04:35:29;;;;;;;12.30;8.57;;;17.20;70.10;;;18.16;38.71;99347.00;5080663;27;20032;-82
2023/01/22 04:37:56;;;;;;;10.60;7.68;;;17.20;69.20;;;18.16;38.90;99340.72;5099424;27;20222;-82
2023/01/22 04:40:22;;;;;;;10.43;7.90;;;17.20;69.30;;;18.13;38.67;99342.13;5096788;27;20094;-82
2023/01/22 04:42:48;;;;;;;12.48;8.55;;;17.20;69.10;;;18.14;38.50;99345.69;5111620;27;20039;-82
2023/01/22 04:45:14;;;;;;;11.25;8.10;;;17.20;69.10;;;18.08;38.89;99345.00;5098884;27;20092;-82
2023/01/22 04:47:42;;;;;;;12.25;8.18;;;17.20;69.20;;;18.09;38.75;99338.41;5094431;27;20038;-81
2023/01/22 04:50:15;;;;;;;10.73;8.35;;;17.20;69.20;;;18.07;38.86;99346.13;5081471;27;20035;-82
2023/01/22 04:52:41;;;;;;;16.10;8.95;;;17.20;69.10;;;18.09;38.62;99343.06;5081940;27;20611;-82
2023/01/22 04:55:08;;;;;;;13.95;8.98;;;17.20;69.10;;;18.10;38.39;99347.44;5082804;27;20235;-82
2023/01/22 04:57:34;;;;;;;12.45;7.80;;;17.20;69.00;;;18.09;38.61;99348.56;5079762;27;20045;-82
2023/01/22 05:00:00;;;;;;;13.60;8.13;;;17.20;69.10;;;18.08;38.76;99346.94;5079920;27;20039;-82
2023/01/22 05:02:26;;;;;;;13.23;8.23;;;17.20;69.10;;;18.05;38.89;99353.06;5058986;27;20041;-82
2023/01/22 05:04:52;;;;;;;11.05;8.50;;;17.10;69.10;;;18.07;38.42;99350.81;5099938;27;20463;-82
2023/01/22 05:07:18;;;;;;;11.95;7.72;;;17.10;69.00;;;18.08;38.48;99350.50;5099068;27;20375;-82
2023/01/22 05:09:44;;;;;;;12.32;8.20;;;17.10;69.10;;;18.08;38.43;99349.69;5078801;27;20047;-82
2023/01/22 05:12:11;;;;;;;11.77;8.23;;;17.10;69.20;;;18.05;38.76;99350.31;5099905;27;20069;-82
2023/01/22 05:14:37;;;;;;;11.10;8.48;;;17.10;69.10;;;18.05;38.61;99347.56;5081660;27;20521;-82
2023/01/22 05:17:03;;;;;;;11.63;7.50;;;17.10;69.30;;;18.10;38.51;99350.19;5091374;27;20047;-82
2023/01/22 05:19:29;;;;;;;10.68;7.65;;;17.10;69.20;;;18.06;38.50;99351.94;5097826;27;20080;-81
2023/01/22 05:21:55;;;;;;;10.57;7.68;;;17.10;69.10;;;18.00;38.71;99352.03;5082470;27;20395;-81
2023/01/22 05:24:21;;;;;;;12.02;8.77;;;17.10;69.00;;;18.03;38.44;99352.56;5082254;27;20064;-81
2023/01/22 05:26:47;;;;;;;11.68;7.28;;;17.10;69.20;;;18.05;38.65;99355.81;5097972;27;20035;-81
2023/01/22 05:29:13;;;;;;;11.50;8.02;;;17.10;69.20;;;18.05;38.60;99362.09;5061628;27;20618;-82
2023/01/22 05:31:40;;;;;;;9.68;7.72;;;17.10;69.20;;;18.03;38.61;99361.59;5097746;27;20043;-82
2023/01/22 05:34:06;;;;;;;10.38;7.75;;;17.10;69.10;;;18.02;38.68;99362.72;5096593;27;20118;-81
2023/01/22 05:36:32;;;;;;;12.20;8.10;;;17.10;69.80;;;18.02;38.35;99367.41;5097310;27;20050;-80
2023/01/22 05:38:58;;;;;;;11.88;7.45;;;17.10;69.00;;;18.03;38.68;99369.03;5063841;27;20248;-81
2023/01/22 05:41:24;;;;;;;10.60;7.78;;;17.10;69.20;;;18.02;38.70;99372.91;5076194;27;20042;-80
2023/01/22 05:43:50;;;;;;;11.90;7.18;;;17.10;69.20;;;18.00;38.77;99378.69;5081108;27;20047;-80
2023/01/22 05:46:16;;;;;;;11.13;7.95;;;17.10;69.20;;;18.00;38.64;99381.44;5097292;27;20035;-80
2023/01/22 05:48:42;;;;;;;9.00;7.13;;;17.10;69.00;;;17.99;38.66;99391.59;5108820;27;20043;-81
2023/01/22 05:51:09;;;;;;;11.95;7.75;;;17.10;69.30;;;17.97;38.85;99395.78;5078726;27;20041;-81
2023/01/22 05:53:35;;;;;;;9.35;6.80;;;17.10;70.00;;;17.98;38.59;99400.94;5058200;27;20043;-81
2023/01/22 05:56:03;;;;;;;9.75;6.75;;;17.10;69.40;;;17.93;38.90;99406.53;5062996;27;20039;-80
2023/01/22 05:58:29;;;;;;;11.10;6.82;;;17.10;69.20;;;18.02;38.51;99409.38;5059276;27;20039;-80
2023/01/22 06:00:56;;;;;;;11.73;7.93;;;17.10;69.20;;;17.96;38.42;99403.22;5095527;27;20526;-81
2023/01/22 06:03:22;;;;;;;8.85;6.18;;;17.10;69.30;;;17.90;38.87;99404.41;5079057;27;20374;-80
2023/01/22 06:06:04;;;;;;;9.05;6.75;;;17.10;69.30;;;17.97;38.60;99404.00;5079033;28;20051;-80
2023/01/22 06:08:30;;;;;;;8.98;7.07;;;17.00;69.20;;;17.96;38.58;99403.22;5087749;27;20113;-80
2023/01/22 06:11:04;;;;;;;8.55;6.88;;;17.10;69.10;;;17.89;38.91;99408.28;5078156;27;20044;-80
2023/01/22 06:13:32;;;;;;;12.20;7.60;;;17.00;69.20;;;17.92;38.84;99410.41;5093693;27;20039;-80
2023/01/22 06:15:59;;;;;;;9.60;7.25;;;17.10;69.30;;;17.92;38.90;99401.38;5079436;27;20043;-80
2023/01/22 06:18:26;;;;;;;11.02;7.25;;;17.00;69.30;;;17.94;38.75;99410.94;5060274;28;20620;-80
2023/01/22 06:21:00;;;;;;;10.77;7.28;;;17.00;69.40;;;17.91;38.67;99407.97;5092605;27;20058;-80
2023/01/22 06:23:26;;;;;;;10.00;6.53;;;17.00;69.30;;;17.89;38.76;99396.50;5090829;28;20047;-80
2023/01/22 06:25:53;;;;;;;9.77;7.30;;;17.00;69.40;;;17.89;38.65;99405.56;5079475;27;20031;-81
2023/01/22 06:28:20;;;;;;;10.20;7.07;;;17.00;69.40;;;17.87;38.49;99409.72;5063421;27;20088;-80
2023/01/22 06:30:46;;;;;;;8.93;6.68;;;16.90;69.30;;;17.85;39.08;99423.75;5089549;28;20069;-80
2023/01/22 06:33:12;;;;;;;9.43;6.93;;;17.00;69.40;;;17.84;38.81;99411.16;5062352;27;20122;-80
2023/01/22 06:35:38;;;;;;;9.32;6.55;;;17.00;69.30;;;17.85;38.78;99404.53;5076301;27;20057;-80
2023/01/22 06:38:04;;;;;;;9.15;6.85;;;16.90;69.30;;;17.85;38.70;99404.53;5077784;28;20043;-80
2023/01/22 06:40:31;;;;;;;7.35;6.35;;;16.90;69.30;;;17.88;38.94;99405.84;5072121;28;20114;-80
2023/01/22 06:42:56;;;;;;;10.55;6.95;;;17.00;69.40;;;17.87;38.79;99402.28;5059799;28;20039;-80
2023/01/22 06:45:23;;;;;;;9.38;6.40;;;17.00;69.20;;;17.85;38.80;99409.22;5074066;28;20099;-80
2023/01/22 06:47:49;;;;;;;10.30;6.18;;;16.90;69.30;;;17.85;38.67;99412.75;5075001;28;20045;-80
2023/01/22 06:50:15;;;;;;;14.07;6.70;;;16.90;69.30;;;17.83;38.80;99419.69;5090682;28;20374;-80
2023/01/22 06:52:42;;;;;;;8.00;6.35;;;16.90;69.40;;;17.76;38.92;99411.84;5078766;27;20616;-80
2023/01/22 06:55:08;;;;;;;10.13;6.75;;;16.90;69.30;;;17.82;38.90;99404.34;5082349;27;20049;-80
2023/01/22 06:57:35;;;;;;;10.25;7.30;;;16.90;69.30;;;17.82;38.82;99404.34;5094421;27;20753;-80
2023/01/22 07:00:03;;;;;;;9.02;6.65;;;16.80;69.30;;;17.83;38.78;99409.50;5064817;27;20055;-81
2023/01/22 07:02:30;;;;;;;7.13;5.65;;;16.80;69.30;;;17.82;38.94;99404.34;5096924;27;20035;-80
2023/01/22 07:04:57;;;;;;;12.30;6.63;;;16.90;69.40;;;17.81;39.02;99406.28;5084219;27;20047;-81
2023/01/22 07:07:23;;;;;;;10.13;6.07;;;16.80;69.30;;;17.82;39.16;99401.59;5066093;27;20043;-80
2023/01/22 07:09:49;;;;;;;8.25;6.20;;;16.80;69.50;;;17.77;38.90;99410.72;5080399;27;20039;-80
2023/01/22 07:12:15;;;;;;;8.35;6.20;;;16.80;69.30;;;17.79;38.74;99413.97;5065592;27;20039;-81
2023/01/22 07:14:41;;;;;;;7.18;5.75;;;16.80;69.60;;;17.79;38.86;99414.81;5081776;27;20035;-80
2023/01/22 07:17:07;;;;;;;13.82;6.35;;;16.80;69.70;;;17.80;38.92;99421.09;5061656;27;20045;-80
2023/01/22 07:19:33;;;;;;;10.30;6.70;;;16.80;69.70;;;17.77;38.55;99436.22;5125761;27;20044;-80
2023/01/22 07:22:00;;;;;;;9.85;5.97;;;16.80;69.60;;;17.80;38.92;99445.78;5063832;27;20042;-81
2023/01/22 07:24:27;;;;;;;8.55;5.82;;;16.80;69.80;;;17.79;38.75;99446.91;5098067;27;20126;-81
2023/01/22 07:26:53;;;;;;;7.35;6.28;;;16.80;69.40;;;17.81;38.88;99455.69;5062331;27;20394;-81
2023/01/22 07:29:19;;;;;;;7.50;5.63;;;16.70;69.50;;;17.83;38.87;99460.84;5078169;27;20085;-81
2023/01/22 07:31:46;;;;;;;6.80;5.53;;;16.70;69.70;;;17.78;38.81;99462.56;5097619;27;20764;-80
2023/01/22 07:34:12;;;;;;;7.45;5.85;;;16.70;69.70;;;17.81;38.83;99463.06;5077984;27;20036;-81
2023/01/22 07:36:38;;;;;;;6.68;5.80;;;16.80;69.70;;;17.82;38.99;99461.97;5098110;27;20039;-80
2023/01/22 07:39:05;;;;;;;8.35;6.00;;;16.80;69.60;;;17.79;38.82;99463.38;5096732;27;20046;-80
2023/01/22 07:41:31;;;;;;;7.53;5.80;;;16.80;69.40;;;17.82;38.67;99465.53;5080134;27;20058;-80
2023/01/22 07:43:59;;;;;;;7.32;5.65;;;16.80;69.30;;;17.82;38.66;99462.78;5055568;27;20051;-80
2023/01/22 07:46:26;;;;;;;8.25;5.95;;;16.80;69.30;;;17.79;39.05;99471.59;5094162;27;20031;-80
2023/01/22 07:48:52;;;;;;;5.72;5.13;;;16.80;69.30;;;17.80;38.82;99470.50;5081818;27;20398;-81
2023/01/22 07:51:18;;;;;;;9.02;6.65;;;16.80;69.30;;;17.82;38.91;99473.75;5065335;27;20038;-80
2023/01/22 07:53:45;;;;;;;7.85;6.38;;;16.80;69.30;;;17.77;38.81;99477.38;5060523;28;20046;-80
2023/01/22 07:56:14;;;;;;;7.35;5.90;;;16.80;69.30;;;17.76;38.84;99474.94;5063565;27;20486;-81
2023/01/22 07:58:40;;;;;;;6.35;4.78;;;16.80;69.20;;;17.77;39.00;99474.63;5096853;27;20401;-80
2023/01/22 08:01:06;;;;;;;11.05;5.75;;;16.80;69.40;;;17.73;38.92;99475.53;5094421;27;20039;-80
2023/01/22 08:03:32;;;;;;;8.35;5.80;;;16.70;69.50;;;17.76;38.93;99472.22;5065679;27;20046;-81
2023/01/22 08:06:00;;;;;;;7.70;5.53;;;16.70;69.60;;;17.77;39.11;99487.53;5064865;27;20461;-81
2023/01/22 08:08:27;;;;;;;9.20;5.60;;;16.80;69.60;;;17.77;38.99;99490.28;5098675;27;20043;-81
2023/01/22 08:10:57;;;;;;;7.13;5.35;;;16.80;69.60;;;17.77;39.15;99487.53;5094483;27;20054;-81
2023/01/22 08:13:24;;;;;;;11.70;6.57;;;16.80;69.50;;;17.76;38.88;99475.75;5112115;27;20642;-81
2023/01/22 08:15:51;;;;;;;7.60;5.65;;;16.80;69.60;;;17.74;38.87;99482.66;5079074;27;20073;-81
2023/01/22 08:18:19;;;;;;;6.75;5.53;;;16.80;69.50;;;17.76;38.72;99467.53;5082732;27;20039;-81
2023/01/22 08:20:45;;;;;;;11.75;6.35;;;16.80;69.30;;;17.77;38.99;99482.06;5096479;27;20072;-81
2023/01/22 08:23:12;;;;;;;5.78;4.95;;;16.80;69.40;;;17.76;38.97;99472.22;5076503;27;20087;-81
2023/01/22 08:25:38;;;;;;;7.85;5.55;;;16.70;69.50;;;17.74;38.86;99475.25;5080234;27;20177;-81
2023/01/22 08:28:04;;;;;;;7.55;5.53;;;16.70;69.60;;;17.80;38.73;99470.50;5078705;27;20045;-81
2023/01/22 08:30:33;;;;;;;8.52;5.40;;;16.70;69.50;;;17.71;39.00;99467.63;5090457;27;20048;-81
2023/01/22 08:33:01;;;;;;;10.20;5.45;;;16.70;69.40;;;17.76;38.79;99463.97;5093107;27;20035;-81
2023/01/22 08:35:28;;;;;;;11.23;5.22;;;16.70;69.60;;;17.79;38.64;99474.34;5078201;27;20505;-81
2023/01/22 08:38:00;;;;;;;6.05;5.05;;;16.70;69.40;;;17.79;38.90;99474.34;5092671;27;20069;-82
2023/01/22 08:40:26;;;;;;;8.63;5.63;;;16.80;69.50;;;17.77;38.76;99482.06;5097859;27;20054;-82
2023/01/22 08:42:53;;;;;;;6.78;4.40;;;16.80;69.50;;;17.77;38.96;99471.88;5095974;27;20849;-81
2023/01/22 08:45:19;;;;;;;11.32;4.47;;;16.80;69.50;;;17.82;38.95;99478.44;5079223;27;20568;-81
2023/01/22 08:47:45;;;;;;;7.53;5.72;;;16.80;69.50;;;17.84;38.82;99485.25;5090975;27;20043;-81
2023/01/22 08:50:15;;;;;;;9.02;6.68;;;16.80;69.40;;;17.81;38.87;99482.28;5095370;27;20039;-81
2023/01/22 08:52:41;;;;;;;10.65;6.18;;;16.80;69.50;;;17.79;38.89;99477.09;5089412;27;20043;-81
2023/01/22 08:55:10;;;;;;;7.00;5.00;;;16.80;69.40;;;17.81;38.96;99485.84;5080412;27;20035;-83
2023/01/22 08:57:37;;;;;;;6.90;5.50;;;16.80;69.40;;;17.80;38.73;99481.47;5098886;27;20141;-82
2023/01/22 09:00:04;;;;;;;6.20;5.20;;;16.80;69.40;;;17.76;38.89;99475.75;5079914;27;20106;-82
2023/01/22 09:02:30;;;;;;;7.25;4.93;;;16.80;69.40;;;17.77;38.97;99482.06;5078231;27;20087;-82
2023/01/22 09:04:56;;;;;;;6.38;5.03;;;16.70;69.50;;;17.79;38.55;99494.38;5107418;27;20048;-82
2023/01/22 09:07:23;;;;;;;7.28;5.55;;;16.70;69.50;;;17.79;38.91;99493.53;5107149;27;20039;-82
2023/01/22 09:09:49;;;;;;;6.35;4.97;;;16.80;69.50;;;17.78;38.63;99494.66;5106281;27;20179;-82
2023/01/22 09:12:15;;;;;;;7.85;4.85;;;16.80;69.60;;;17.77;38.68;99499.31;5080518;27;20050;-82
2023/01/22 09:14:41;;;;;;;7.05;4.43;;;16.70;69.60;;;17.82;38.88;99501.19;5060791;27;20381;-81
2023/01/22 09:17:20;;;;;;;7.35;5.50;;;16.80;69.60;;;17.74;38.99;99499.13;5066212;27;20043;-81
2023/01/22 09:19:48;;;;;;;6.38;5.00;;;16.80;69.50;;;17.75;38.83;99496.06;5069728;27;20035;-82
2023/01/22 09:22:14;;;;;;;8.23;5.70;;;16.70;69.50;;;17.81;38.94;99488.59;5073668;27;20126;-82
2023/01/22 09:24:40;;;;;;;10.93;6.57;;;16.70;69.50;;;17.81;38.86;99491.34;5080919;27;20126;-82
2023/01/22 09:27:07;;;;;;;9.40;6.88;;;16.70;69.50;;;17.87;38.71;99492.84;5071710;27;20391;-82
2023/01/22 09:29:35;;;;;;;9.88;6.72;;;16.80;69.40;;;17.89;38.52;99485.13;5109039;27;20043;-82
2023/01/22 09:32:02;;;;;;;12.00;6.97;;;16.90;69.30;;;17.92;38.65;99489.19;5056941;27;20047;-83
2023/01/22 09:34:28;;;;;;;12.40;7.38;;;16.80;69.30;;;17.90;38.56;99485.94;5070159;27;20035;-82
2023/01/22 09:36:54;;;;;;;11.32;7.80;;;16.80;69.30;;;17.82;38.35;99495.72;5096190;27;20022;-82
2023/01/22 09:39:20;;;;;;;13.15;7.13;;;16.80;69.30;;;17.88;38.86;99491.72;5094810;27;20372;-82
2023/01/22 09:41:50;;;;;;;15.13;7.80;;;16.90;69.40;;;17.86;38.64;99491.25;5096036;27;20093;-82
2023/01/22 09:44:43;;;;;;;16.15;8.57;;;16.90;69.30;;;17.88;38.76;99494.47;5076033;27;20146;-82
2023/01/22 09:47:17;;;;;;;14.00;8.65;;;16.80;69.30;;;17.89;38.38;99492.56;5098568;27;20059;-83
2023/01/22 09:49:53;;;;;;;14.75;7.35;;;16.90;69.30;;;17.90;38.50;99491.44;5077316;27;20054;-82
2023/01/22 09:52:20;;;;;;;13.95;8.32;;;16.90;69.30;;;17.93;38.55;99488.88;5091175;27;20039;-82
2023/01/22 09:54:47;;;;;;;17.42;8.63;;;16.90;69.30;;;17.95;38.75;99485.84;5077596;27;20099;-82
2023/01/22 09:57:15;;;;;;;18.27;9.30;;;16.90;69.40;;;17.96;38.59;99492.94;5090254;27;20094;-82
2023/01/22 09:59:52;;;;;;;16.73;9.18;;;17.00;69.30;;;17.88;38.55;99480.75;5090456;27;20051;-82
2023/01/22 10:02:43;;;;;;;18.65;9.35;;;16.90;69.30;;;17.87;38.63;99472.84;5098208;27;20460;-82
2023/01/22 10:05:27;;;;;;;13.60;8.40;;;16.90;69.30;;;17.87;38.81;99476.38;5109591;27;20439;-82
2023/01/22 10:08:01;;;;;;;19.98;9.75;;;16.90;69.40;;;17.91;38.46;99463.69;5132650;27;20064;-82
2023/01/22 10:10:27;;;;;;;17.63;9.73;;;16.90;69.30;;;17.98;38.47;99483.28;5114574;27;20370;-82
2023/01/22 10:13:19;;;;;;;16.38;8.73;;;16.90;69.30;;;18.01;38.44;99473.63;5082867;27;20041;-82
2023/01/22 10:15:46;;;;;;;14.93;8.52;;;17.00;69.30;;;18.02;38.63;99480.75;5127770;27;20047;-82
2023/01/22 10:18:42;;;;;;;17.92;9.70;;;17.00;69.10;;;18.00;38.46;99486.53;5113460;27;20074;-81
2023/01/22 10:21:26;;;;;;;16.70;9.00;;;17.00;69.00;;;17.98;38.53;99485.22;5099705;27;20035;-81
2023/01/22 10:23:55;;;;;;;19.05;9.65;;;17.00;68.90;;;17.96;38.45;99479.22;5097105;27;20118;-82